• pl
  • eng

Awiacja
TAF dla lotnisk wojskowych 04:30 20.08.2018

TAF EPCE 192300Z 2000/2009 13006KT CAVOK =

TAF EPCE 200200Z 2003/2012 17006KT CAVOK BECMG 2006/2009 24010KT
TEMPO 2008/2012 BKN020=

TAF EPDA 192300Z 2000/2009 24005KT CAVOK BECMG 2006/2009 24015KT=

TAF EPDA 200200Z 2003/2012 24005KT CAVOK BECMG 2006/2009 24015KT
TEMPO 2009/2012 BKN020CB =

TAF EPLY 192300Z 2000/2009 VRB03KT CAVOK=

TAF EPLY 200200Z 2003/2012 VRB03KT CAVOK BECMG 2009/2011 27012KT=

TAF COR EPMI 192300Z 2000/2009 VRB02KT CAVOK BECMG 2007/2009 26010KT
=

TAF EPMI 200200Z 2003/2012 VRB02KT CAVOK
BECMG 2007/2009 26010KT=

TAF EPMM 192300Z 2000/2009 16004KT CAVOK PROB40 2001/2006 3000 BR
MIFG=

TAF EPMM 200200Z 2003/2012 14004KT CAVOK PROB40 2003/2006 3000 BR
MIFG=

TAF EPOK 192300Z 2000/2009 18008KT CAVOK PROB40 2008/2009 27015G25KT=

TAF EPOK 200200Z 2003/2012 18008KT CAVOK PROB40 TEMPO 2008/2010
27015G25KT PROB40 TEMPO 2011/2012 27015G25KT 7000 SHRA BKN030CB
=
Awiacja.imgw.pl jest pogodowym serwisem informacyjnym
Instytutu Meteorologii i Gospodarki Wodnej Państwowego Instytutu Badawczego.
Copyright IMGW PIB 2009-2011© Wszelkie prawa zastrzeżone.